createdAt,value
2023-01-01T00:00:48.954Z,100.00
2023-01-01T00:03:53.875Z,100.00
2023-01-01T00:06:56.666Z,100.00
2023-01-01T00:10:37.858Z,100.00
2023-01-01T00:13:41.917Z,100.00
2023-01-01T00:16:45.164Z,100.00
2023-01-01T00:19:47.891Z,100.00
2023-01-01T00:22:55.780Z,100.00
2023-01-01T00:25:59.350Z,100.00
2023-01-01T00:29:02.959Z,100.00
2023-01-01T00:32:07.959Z,100.00
2023-01-01T00:35:14.292Z,100.00
2023-01-01T00:38:17.242Z,100.00
2023-01-01T00:41:20.680Z,100.00
2023-01-01T00:44:23.371Z,100.00
2023-01-01T00:47:26.241Z,100.00
2023-01-01T00:50:28.987Z,100.00
2023-01-01T00:53:31.941Z,100.00
2023-01-01T00:56:35.467Z,100.00
2023-01-01T00:59:38.609Z,100.00
2023-01-01T01:02:41.498Z,100.00
2023-01-01T01:05:45.024Z,100.00
2023-01-01T01:08:47.987Z,100.00
2023-01-01T01:11:50.905Z,100.00
2023-01-01T01:15:14.319Z,100.00
2023-01-01T01:18:17.449Z,100.00
2023-01-01T01:21:22.816Z,100.00
2023-01-01T01:24:25.737Z,100.00
2023-01-01T01:27:28.412Z,100.00
2023-01-01T01:30:31.433Z,100.00
2023-01-01T01:33:34.158Z,100.00
2023-01-01T01:36:37.070Z,100.00
2023-01-01T01:39:39.726Z,100.00
2023-01-01T01:42:46.313Z,100.00
2023-01-01T01:45:50.042Z,100.00
2023-01-01T01:48:55.510Z,100.00
2023-01-01T01:52:01.068Z,100.00
2023-01-01T01:55:06.876Z,100.00
2023-01-01T01:58:12.149Z,100.00
2023-01-01T02:01:15.290Z,100.00
2023-01-01T02:04:18.868Z,100.00
2023-01-01T02:07:24.384Z,100.00
2023-01-01T02:10:28.721Z,100.00
2023-01-01T02:13:31.405Z,100.00
2023-01-01T02:16:46.597Z,100.00
2023-01-01T02:19:52.020Z,100.00
2023-01-01T02:23:13.471Z,100.00
2023-01-01T02:26:42.561Z,100.00
2023-01-01T02:29:59.075Z,100.00
2023-01-01T02:33:07.247Z,100.00
2023-01-01T02:36:12.314Z,100.00
2023-01-01T02:39:16.905Z,100.00
2023-01-01T02:42:21.317Z,100.00
2023-01-01T02:45:24.012Z,100.00
2023-01-01T02:48:42.634Z,100.00
2023-01-01T02:52:08.188Z,100.00
2023-01-01T02:55:23.737Z,100.00
2023-01-01T02:59:10.400Z,100.00
2023-01-01T03:02:51.735Z,100.00
2023-01-01T03:06:23.137Z,100.00
2023-01-01T03:09:35.125Z,100.00
2023-01-01T03:12:46.801Z,100.00
2023-01-01T03:16:09.531Z,100.00
2023-01-01T03:19:26.381Z,100.00
2023-01-01T03:22:33.241Z,100.00
2023-01-01T03:25:57.933Z,100.00
2023-01-01T03:29:05.140Z,100.00
2023-01-01T03:32:11.228Z,100.00
2023-01-01T03:35:15.998Z,100.00
2023-01-01T03:38:24.396Z,100.00
2023-01-01T03:41:46.853Z,100.00
2023-01-01T03:44:58.052Z,100.00
2023-01-01T03:48:01.293Z,100.00
2023-01-01T03:51:19.634Z,100.00
2023-01-01T03:54:59.133Z,100.00
2023-01-01T03:58:23.913Z,100.00
2023-01-01T04:01:33.674Z,100.00
2023-01-01T04:04:37.596Z,100.00
2023-01-01T04:10:48.969Z,100.00
2023-01-01T04:13:51.587Z,100.00
2023-01-01T04:16:58.339Z,100.00
2023-01-01T04:20:00.941Z,100.00
2023-01-01T04:23:04.437Z,100.00
2023-01-01T04:26:12.786Z,100.00
2023-01-01T04:29:15.736Z,100.00
2023-01-01T04:32:18.545Z,100.00
2023-01-01T04:35:21.761Z,100.00
2023-01-01T04:38:24.413Z,100.00
2023-01-01T04:41:27.349Z,100.00
2023-01-01T04:44:29.966Z,100.00
2023-01-01T04:47:33.038Z,100.00
2023-01-01T04:50:35.753Z,100.00
2023-01-01T04:53:39.293Z,100.00
2023-01-01T04:56:43.030Z,100.00
2023-01-01T04:59:45.949Z,100.00
2023-01-01T05:02:48.561Z,100.00
2023-01-01T05:06:06.230Z,100.00
2023-01-01T05:09:10.516Z,100.00
2023-01-01T05:12:13.412Z,100.00
2023-01-01T05:15:16.120Z,100.00
2023-01-01T05:18:18.987Z,100.00
2023-01-01T05:21:24.468Z,100.00
2023-01-01T05:24:27.346Z,100.00
2023-01-01T05:27:29.995Z,100.00
2023-01-01T05:30:33.005Z,100.00
2023-01-01T05:33:36.622Z,100.00
2023-01-01T05:36:39.825Z,100.00
2023-01-01T05:39:42.539Z,100.00
2023-01-01T05:42:47.880Z,100.00
2023-01-01T05:46:00.265Z,100.00
2023-01-01T05:49:03.792Z,100.00
2023-01-01T05:52:06.496Z,100.00
2023-01-01T05:55:09.440Z,100.00
2023-01-01T05:58:12.033Z,100.00
2023-01-01T06:01:19.231Z,100.00
2023-01-01T06:04:22.175Z,100.00
2023-01-01T06:07:24.844Z,100.00
2023-01-01T06:10:27.826Z,100.00
2023-01-01T06:13:30.905Z,100.00
2023-01-01T06:16:33.854Z,100.00
2023-01-01T06:19:36.474Z,100.00
2023-01-01T06:22:39.468Z,100.00
2023-01-01T06:25:42.389Z,100.00
2023-01-01T06:28:46.894Z,100.00
2023-01-01T06:31:49.685Z,100.00
2023-01-01T06:34:52.601Z,100.00
2023-01-01T06:37:55.316Z,100.00
2023-01-01T06:41:04.309Z,100.00
2023-01-01T06:44:07.660Z,100.00
2023-01-01T06:47:10.622Z,100.00
2023-01-01T06:50:13.743Z,100.00
2023-01-01T06:53:16.698Z,100.00
2023-01-01T06:56:20.449Z,100.00
2023-01-01T06:59:23.486Z,100.00
2023-01-01T07:02:26.302Z,100.00
2023-01-01T07:05:29.268Z,100.00
2023-01-01T07:08:31.985Z,100.00
2023-01-01T07:11:35.762Z,100.00
2023-01-01T07:14:38.831Z,100.00
2023-01-01T07:17:41.957Z,100.00
2023-01-01T07:20:48.817Z,100.00
2023-01-01T07:23:52.077Z,100.00
2023-01-01T07:26:54.654Z,100.00
2023-01-01T07:29:57.552Z,100.00
2023-01-01T07:33:00.373Z,100.00
2023-01-01T07:36:03.441Z,100.00
2023-01-01T07:39:06.417Z,100.00
2023-01-01T07:42:11.053Z,100.00
2023-01-01T07:45:13.804Z,100.00
2023-01-01T07:48:16.932Z,100.00
2023-01-01T07:51:19.755Z,100.00
2023-01-01T07:54:22.702Z,100.00
2023-01-01T07:57:25.312Z,100.00
2023-01-01T08:00:31.056Z,100.00
2023-01-01T08:03:34.318Z,100.00
2023-01-01T08:06:37.896Z,100.00
2023-01-01T08:09:41.806Z,100.00
2023-01-01T08:12:44.690Z,100.00
2023-01-01T08:15:47.682Z,100.00
2023-01-01T08:18:50.393Z,100.00
2023-01-01T08:21:53.373Z,100.00
2023-01-01T08:24:55.955Z,100.00
2023-01-01T08:27:58.800Z,100.00
2023-01-01T08:31:01.672Z,100.00
2023-01-01T08:34:05.363Z,100.00
2023-01-01T08:37:13.139Z,100.00
2023-01-01T08:40:16.123Z,100.00
2023-01-01T08:43:18.737Z,100.00
2023-01-01T08:46:21.748Z,100.00
2023-01-01T08:49:24.500Z,100.00
2023-01-01T08:52:27.375Z,100.00
2023-01-01T08:55:30.194Z,100.00
2023-01-01T08:58:35.253Z,100.00
2023-01-01T09:01:37.947Z,100.00
2023-01-01T09:04:40.919Z,100.00
2023-01-01T09:07:43.461Z,100.00
2023-01-01T09:10:47.213Z,100.00
2023-01-01T09:13:50.921Z,99.97
2023-01-01T09:16:53.784Z,98.24
2023-01-01T09:19:56.404Z,97.40
2023-01-01T09:23:05.495Z,95.58
2023-01-01T09:26:10.535Z,93.91
2023-01-01T09:29:13.685Z,92.41
2023-01-01T09:32:16.602Z,92.64
2023-01-01T09:35:19.620Z,93.22
2023-01-01T09:38:22.252Z,91.68
2023-01-01T09:41:46.818Z,91.06
2023-01-01T09:45:00.517Z,88.62
2023-01-01T09:48:11.650Z,87.78
2023-01-01T09:51:18.972Z,89.35
2023-01-01T09:54:28.214Z,88.44
2023-01-01T09:57:32.387Z,89.18
2023-01-01T10:00:39.982Z,89.10
2023-01-01T10:03:51.946Z,88.81
2023-01-01T10:07:09.887Z,86.48
2023-01-01T10:10:34.206Z,87.22
2023-01-01T10:13:42.259Z,86.32
2023-01-01T10:16:54.739Z,85.41
2023-01-01T10:20:02.226Z,85.06
2023-01-01T10:23:15.824Z,85.51
2023-01-01T10:26:21.616Z,84.83
2023-01-01T10:29:46.602Z,84.30
2023-01-01T10:32:51.464Z,85.20
2023-01-01T10:35:58.082Z,85.89
2023-01-01T10:39:00.911Z,84.77
2023-01-01T10:42:04.264Z,85.54
2023-01-01T10:45:15.065Z,84.20
2023-01-01T10:48:24.051Z,83.41
2023-01-01T10:51:26.889Z,84.73
2023-01-01T10:54:36.306Z,85.00
2023-01-01T10:57:40.595Z,82.43
2023-01-01T11:00:58.478Z,83.81
2023-01-01T11:04:13.275Z,83.09
2023-01-01T11:07:30.841Z,82.50
2023-01-01T11:10:33.670Z,82.72
2023-01-01T11:13:36.573Z,83.15
2023-01-01T11:16:40.037Z,81.25
2023-01-01T11:19:48.693Z,82.24
2023-01-01T11:22:53.373Z,80.90
2023-01-01T11:26:17.756Z,81.76
2023-01-01T11:29:25.197Z,82.10
2023-01-01T11:32:35.685Z,79.91
2023-01-01T11:35:50.072Z,80.62
2023-01-01T11:39:17.924Z,80.86
2023-01-01T11:42:30.287Z,81.03
2023-01-01T11:45:37.873Z,80.24
2023-01-01T11:48:44.037Z,80.37
2023-01-01T11:51:47.236Z,80.58
2023-01-01T11:54:50.940Z,80.13
2023-01-01T11:58:05.416Z,79.46
2023-01-01T12:01:31.582Z,80.49
2023-01-01T12:04:44.122Z,80.34
2023-01-01T12:07:47.190Z,81.08
2023-01-01T12:11:00.433Z,82.22
2023-01-01T12:14:13.503Z,82.09
2023-01-01T12:17:39.806Z,82.26
2023-01-01T12:20:52.639Z,82.22
2023-01-01T12:23:56.241Z,82.85
2023-01-01T12:27:13.015Z,82.67
2023-01-01T12:30:42.339Z,82.53
2023-01-01T12:34:12.981Z,82.95
2023-01-01T12:37:46.332Z,82.96
2023-01-01T12:41:34.221Z,83.37
2023-01-01T12:44:52.627Z,83.81
2023-01-01T12:48:07.386Z,83.88
2023-01-01T12:51:19.138Z,84.71
2023-01-01T12:54:43.277Z,84.82
2023-01-01T12:57:56.088Z,85.02
2023-01-01T13:01:07.293Z,85.89
2023-01-01T13:04:17.207Z,86.28
2023-01-01T13:07:30.318Z,87.59
2023-01-01T13:10:40.567Z,88.69
2023-01-01T13:13:43.549Z,89.00
2023-01-01T13:16:54.053Z,90.28
2023-01-01T13:20:11.619Z,90.50
2023-01-01T13:23:36.411Z,91.31
2023-01-01T13:26:40.553Z,91.87
2023-01-01T13:29:45.310Z,92.09
2023-01-01T13:33:12.782Z,91.73
2023-01-01T13:36:18.602Z,92.12
2023-01-01T13:39:55.557Z,91.91
2023-01-01T13:43:04.346Z,92.32
2023-01-01T13:46:13.488Z,92.54
2023-01-01T13:49:21.236Z,93.85
2023-01-01T13:52:32.908Z,94.32
2023-01-01T13:55:45.785Z,94.21
2023-01-01T13:58:51.241Z,94.31
2023-01-01T14:02:20.127Z,94.90
2023-01-01T14:05:28.438Z,95.40
2023-01-01T14:08:34.516Z,95.28
2023-01-01T14:11:37.649Z,95.54
2023-01-01T14:14:40.335Z,95.08
2023-01-01T14:17:44.588Z,96.16
2023-01-01T14:20:53.823Z,96.88
2023-01-01T14:24:01.147Z,98.06
2023-01-01T14:27:06.219Z,99.21
2023-01-01T14:30:16.654Z,100.00
2023-01-01T14:33:25.168Z,100.00
2023-01-01T14:36:31.051Z,100.00
2023-01-01T14:39:36.320Z,100.00
2023-01-01T14:42:40.538Z,100.00
2023-01-01T14:45:44.210Z,100.00
2023-01-01T14:49:00.969Z,100.00
2023-01-01T14:52:09.478Z,100.00
2023-01-01T14:55:19.217Z,100.00
2023-01-01T14:58:29.055Z,100.00
2023-01-01T15:01:32.736Z,100.00
2023-01-01T15:04:36.177Z,100.00
2023-01-01T15:07:39.106Z,100.00
2023-01-01T15:10:43.661Z,100.00
2023-01-01T15:14:02.679Z,100.00
2023-01-01T15:17:06.749Z,100.00
2023-01-01T15:20:22.240Z,100.00
2023-01-01T15:23:24.856Z,100.00
2023-01-01T15:26:33.486Z,100.00
2023-01-01T15:29:38.681Z,100.00
2023-01-01T15:32:41.743Z,100.00
2023-01-01T15:35:49.862Z,100.00
2023-01-01T15:38:53.049Z,100.00
2023-01-01T15:41:55.682Z,100.00
2023-01-01T15:45:34.041Z,100.00
2023-01-01T15:48:46.722Z,100.00
2023-01-01T15:51:49.831Z,100.00
2023-01-01T15:54:53.064Z,100.00
2023-01-01T15:57:56.495Z,100.00
2023-01-01T16:01:03.339Z,100.00
2023-01-01T16:04:10.400Z,100.00
2023-01-01T16:07:20.959Z,100.00
2023-01-01T16:10:24.101Z,100.00
2023-01-01T16:13:27.287Z,100.00
2023-01-01T16:16:31.578Z,100.00
2023-01-01T16:19:34.553Z,100.00
2023-01-01T16:22:37.648Z,100.00
2023-01-01T16:25:40.294Z,100.00
2023-01-01T16:28:43.345Z,100.00
2023-01-01T16:31:48.146Z,100.00
2023-01-01T16:34:50.943Z,100.00
2023-01-01T16:37:53.547Z,100.00
2023-01-01T16:40:56.451Z,100.00
2023-01-01T16:43:59.027Z,100.00
2023-01-01T16:47:02.084Z,100.00
2023-01-01T16:50:05.107Z,100.00
2023-01-01T16:53:07.989Z,100.00
2023-01-01T16:56:12.438Z,100.00
2023-01-01T16:59:15.426Z,100.00
2023-01-01T17:02:18.489Z,100.00
2023-01-01T17:05:21.464Z,100.00
2023-01-01T17:08:24.149Z,100.00
2023-01-01T17:11:27.635Z,100.00
2023-01-01T17:14:30.696Z,100.00
2023-01-01T17:17:33.607Z,100.00
2023-01-01T17:20:37.332Z,100.00
2023-01-01T17:23:43.917Z,100.00
2023-01-01T17:26:50.743Z,100.00
2023-01-01T17:29:54.092Z,100.00
2023-01-01T17:32:57.321Z,100.00
2023-01-01T17:36:00.434Z,100.00
2023-01-01T17:39:03.095Z,100.00
2023-01-01T17:42:06.024Z,100.00
2023-01-01T17:45:10.993Z,100.00
2023-01-01T17:48:13.876Z,100.00
2023-01-01T17:51:18.127Z,100.00
2023-01-01T17:54:21.257Z,100.00
2023-01-01T17:57:25.299Z,100.00
2023-01-01T18:00:28.318Z,100.00
2023-01-01T18:03:31.476Z,100.00
2023-01-01T18:06:41.083Z,100.00
2023-01-01T18:09:45.454Z,100.00
2023-01-01T18:12:48.422Z,100.00
2023-01-01T18:15:51.531Z,100.00
2023-01-01T18:18:54.484Z,100.00
2023-01-01T18:21:57.517Z,100.00
2023-01-01T18:25:00.119Z,100.00
2023-01-01T18:28:03.676Z,100.00
2023-01-01T18:31:11.876Z,100.00
2023-01-01T18:34:14.964Z,100.00
2023-01-01T18:37:18.445Z,100.00
2023-01-01T18:40:22.303Z,100.00
2023-01-01T18:43:25.344Z,100.00
2023-01-01T18:46:33.032Z,100.00
2023-01-01T18:49:37.598Z,100.00
2023-01-01T18:52:40.645Z,100.00
2023-01-01T18:55:43.240Z,100.00
2023-01-01T18:58:47.668Z,100.00
2023-01-01T19:01:50.689Z,100.00
2023-01-01T19:05:24.762Z,100.00
2023-01-01T19:08:29.756Z,100.00
2023-01-01T19:11:37.129Z,100.00
2023-01-01T19:14:40.852Z,100.00
2023-01-01T19:17:45.018Z,100.00
2023-01-01T19:20:58.505Z,100.00
2023-01-01T19:24:03.000Z,100.00
2023-01-01T19:27:15.452Z,100.00
2023-01-01T19:30:23.369Z,100.00
2023-01-01T19:33:26.287Z,100.00
2023-01-01T19:36:29.372Z,100.00
2023-01-01T19:39:32.599Z,100.00
2023-01-01T19:42:35.414Z,100.00
2023-01-01T19:45:38.141Z,100.00
2023-01-01T19:48:41.254Z,100.00
2023-01-01T19:51:44.096Z,100.00
2023-01-01T19:54:48.264Z,100.00
2023-01-01T19:57:50.838Z,100.00
2023-01-01T20:00:54.515Z,100.00
2023-01-01T20:03:58.903Z,100.00
2023-01-01T20:07:02.282Z,100.00
2023-01-01T20:10:05.950Z,100.00
2023-01-01T20:13:09.971Z,100.00
2023-01-01T20:16:13.270Z,100.00
2023-01-01T20:19:17.028Z,100.00
2023-01-01T20:22:22.048Z,100.00
2023-01-01T20:25:24.946Z,100.00
2023-01-01T20:28:46.892Z,100.00
2023-01-01T20:31:53.091Z,100.00
2023-01-01T20:34:56.483Z,100.00
2023-01-01T20:37:59.291Z,100.00
2023-01-01T20:41:23.021Z,100.00
2023-01-01T20:44:26.361Z,100.00
2023-01-01T20:47:29.549Z,100.00
2023-01-01T20:50:32.508Z,100.00
2023-01-01T20:53:36.054Z,100.00
2023-01-01T20:56:38.866Z,100.00
2023-01-01T20:59:42.092Z,100.00
2023-01-01T21:02:45.037Z,100.00
2023-01-01T21:05:48.229Z,100.00
2023-01-01T21:08:50.956Z,100.00
2023-01-01T21:11:55.757Z,100.00
2023-01-01T21:14:58.564Z,100.00
2023-01-01T21:18:04.205Z,100.00
2023-01-01T21:21:32.237Z,100.00
2023-01-01T21:24:39.598Z,100.00
2023-01-01T21:27:42.268Z,100.00
2023-01-01T21:30:51.151Z,100.00
2023-01-01T21:33:53.772Z,100.00
2023-01-01T21:37:02.128Z,100.00
2023-01-01T21:40:35.863Z,100.00
2023-01-01T21:43:42.107Z,100.00
2023-01-01T21:46:54.232Z,100.00
2023-01-01T21:49:59.866Z,100.00
2023-01-01T21:53:09.846Z,100.00
2023-01-01T21:56:47.712Z,100.00
2023-01-01T21:59:51.574Z,100.00
2023-01-01T22:02:54.722Z,100.00
2023-01-01T22:05:59.653Z,100.00
2023-01-01T22:09:11.186Z,100.00
2023-01-01T22:12:14.030Z,100.00
2023-01-01T22:15:25.896Z,100.00
2023-01-01T22:18:31.162Z,100.00
2023-01-01T22:21:33.735Z,100.00
2023-01-01T22:24:36.767Z,100.00
2023-01-01T22:27:40.576Z,100.00
2023-01-01T22:30:44.064Z,100.00
2023-01-01T22:33:48.685Z,100.00
2023-01-01T22:36:51.620Z,100.00
2023-01-01T22:39:54.182Z,100.00
2023-01-01T22:43:15.413Z,100.00
2023-01-01T22:46:33.825Z,100.00
2023-01-01T22:49:39.274Z,100.00
2023-01-01T22:52:41.969Z,100.00
2023-01-01T22:55:46.056Z,100.00
2023-01-01T22:58:54.837Z,100.00
2023-01-01T23:02:00.551Z,100.00
2023-01-01T23:05:03.559Z,100.00
2023-01-01T23:08:06.694Z,100.00
2023-01-01T23:11:09.514Z,100.00
2023-01-01T23:14:35.505Z,100.00
2023-01-01T23:17:41.306Z,100.00
2023-01-01T23:20:44.254Z,100.00
2023-01-01T23:23:50.429Z,100.00
2023-01-01T23:26:53.787Z,100.00
2023-01-01T23:29:56.741Z,100.00
2023-01-01T23:32:59.824Z,100.00
2023-01-01T23:36:02.819Z,100.00
2023-01-01T23:39:06.923Z,100.00
2023-01-01T23:42:10.866Z,100.00
2023-01-01T23:45:13.778Z,100.00
2023-01-01T23:48:17.145Z,100.00
2023-01-01T23:51:20.430Z,100.00
2023-01-01T23:54:23.175Z,100.00
2023-01-01T23:57:26.507Z,100.00
